createdAt,value
2019-03-23T00:00:01.880Z,25
2019-03-23T00:05:01.567Z,23
2019-03-23T00:10:01.378Z,24
2019-03-23T00:15:02.227Z,21
2019-03-23T00:20:01.658Z,19
2019-03-23T00:25:02.007Z,19
2019-03-23T00:30:01.403Z,20
2019-03-23T00:35:01.792Z,21
2019-03-23T00:40:01.607Z,22
2019-03-23T00:45:01.946Z,19
2019-03-23T00:50:02.565Z,23
2019-03-23T00:55:01.910Z,23
2019-03-23T01:00:02.295Z,22
2019-03-23T01:05:01.914Z,19
2019-03-23T01:10:01.692Z,23
2019-03-23T01:15:01.998Z,18
2019-03-23T01:20:01.476Z,20
2019-03-23T01:25:01.854Z,23
2019-03-23T01:30:02.216Z,24
2019-03-23T01:35:01.582Z,18
2019-03-23T01:40:01.366Z,23
2019-03-23T01:45:01.739Z,25
2019-03-23T01:50:02.110Z,22
2019-03-23T01:55:01.467Z,22
2019-03-23T02:00:01.816Z,23
2019-03-23T02:05:01.745Z,23
2019-03-23T02:10:01.562Z,27
2019-03-23T02:15:02.161Z,22
2019-03-23T02:20:01.609Z,22
2019-03-23T02:25:01.965Z,22
2019-03-23T02:30:02.337Z,20
2019-03-23T02:35:01.675Z,20
2019-03-23T02:40:01.488Z,21
2019-03-23T02:45:01.861Z,23
2019-03-23T02:50:02.257Z,22
2019-03-23T02:55:01.655Z,22
2019-03-23T03:00:02.085Z,24
2019-03-23T03:05:01.791Z,21
2019-03-23T03:10:01.635Z,18
2019-03-23T03:15:01.515Z,25
2019-03-23T03:20:01.988Z,23
2019-03-23T03:25:01.396Z,22
2019-03-23T03:30:01.772Z,19
2019-03-23T03:35:02.166Z,23
2019-03-23T03:40:01.979Z,22
2019-03-23T03:45:01.332Z,20
2019-03-23T03:50:01.736Z,20
2019-03-23T03:55:02.136Z,17
2019-03-23T04:00:01.499Z,19
2019-03-23T04:05:02.187Z,18
2019-03-23T04:10:02.084Z,23
2019-03-23T04:15:01.584Z,18
2019-03-23T04:20:02.063Z,19
2019-03-23T04:25:01.398Z,21
2019-03-23T04:30:01.804Z,15
2019-03-23T04:35:02.172Z,18
2019-03-23T04:40:01.982Z,18
2019-03-23T04:45:01.350Z,18
2019-03-23T04:50:01.743Z,18
2019-03-23T04:55:02.087Z,15
2019-03-23T05:00:01.427Z,19
2019-03-23T05:05:02.076Z,15
2019-03-23T05:10:01.893Z,21
2019-03-23T05:15:01.647Z,18
2019-03-23T05:20:02.115Z,24
2019-03-23T05:25:01.465Z,21
2019-03-23T05:30:01.776Z,19
2019-03-23T05:35:02.131Z,30
2019-03-23T05:40:01.956Z,21
2019-03-23T05:45:01.333Z,29
2019-03-23T05:50:01.705Z,15
2019-03-23T05:55:02.070Z,32
2019-03-23T06:00:01.415Z,16
2019-03-23T06:05:02.031Z,25
2019-03-23T06:10:01.800Z,36
2019-03-23T06:15:02.242Z,39
2019-03-23T06:20:01.713Z,37
2019-03-23T06:25:02.057Z,15
2019-03-23T06:30:01.414Z,17
2019-03-23T06:35:01.763Z,30
2019-03-23T06:40:01.548Z,26
2019-03-23T06:45:02.156Z,21
2019-03-23T06:50:01.534Z,17
2019-03-23T06:55:01.891Z,14
2019-03-23T07:00:02.244Z,17
2019-03-23T07:05:01.858Z,17
2019-03-23T07:10:01.666Z,15
2019-03-23T07:15:01.564Z,31
2019-03-23T07:20:02.009Z,42
2019-03-23T07:25:01.351Z,68
2019-03-23T07:30:01.726Z,13
2019-03-23T07:35:02.107Z,18
2019-03-23T07:40:01.940Z,20
2019-03-23T07:45:02.297Z,16
2019-03-23T07:50:01.643Z,17
2019-03-23T07:55:02.000Z,20
2019-03-23T08:00:01.310Z,22
2019-03-23T08:05:02.165Z,17
2019-03-23T08:10:01.983Z,17
2019-03-23T08:15:01.879Z,15
2019-03-23T08:20:01.337Z,13
2019-03-23T08:25:01.688Z,12
2019-03-23T08:30:02.056Z,12
2019-03-23T08:35:01.414Z,12
2019-03-23T08:40:02.227Z,9
2019-03-23T08:45:01.551Z,12
2019-03-23T08:50:02.180Z,9
2019-03-23T08:55:01.558Z,9
2019-03-23T09:00:01.887Z,10
2019-03-23T09:05:01.603Z,8
2019-03-23T09:10:01.347Z,9
2019-03-23T09:15:02.228Z,10
2019-03-23T09:20:01.654Z,9
2019-03-23T09:25:02.028Z,6
2019-03-23T09:30:01.362Z,9
2019-03-23T09:35:01.708Z,8
2019-03-23T09:40:10.049Z,5
2019-03-23T09:45:02.286Z,9
2019-03-23T09:50:01.701Z,8
2019-03-23T09:55:02.081Z,5
2019-03-23T10:00:01.413Z,8
2019-03-23T10:05:02.094Z,6
2019-03-23T10:10:01.906Z,5
2019-03-23T10:15:01.557Z,7
2019-03-23T10:20:02.035Z,14
2019-03-23T10:25:01.395Z,11
2019-03-23T10:30:01.782Z,13
2019-03-23T10:35:02.146Z,12
2019-03-23T10:40:01.977Z,9
2019-03-23T10:45:01.337Z,10
2019-03-23T10:50:01.706Z,8
2019-03-23T10:55:02.057Z,7
2019-03-23T11:00:01.360Z,8
2019-03-23T11:05:02.036Z,6
2019-03-23T11:10:01.852Z,8
2019-03-23T11:15:02.227Z,7
2019-03-23T11:20:01.585Z,7
2019-03-23T11:25:01.945Z,4
2019-03-23T11:30:01.311Z,4
2019-03-23T11:35:01.698Z,3
2019-03-23T11:40:01.517Z,5
2019-03-23T11:45:01.888Z,5
2019-03-23T11:50:02.239Z,3
2019-03-23T11:55:01.565Z,4
2019-03-23T12:00:01.878Z,3
2019-03-23T12:05:01.508Z,4
2019-03-23T12:10:02.297Z,4
2019-03-23T12:15:01.747Z,4
2019-03-23T12:20:02.190Z,4
2019-03-23T12:25:01.565Z,5
2019-03-23T12:30:07.018Z,4
2019-03-23T12:35:02.067Z,5
2019-03-23T12:40:01.855Z,6
2019-03-23T12:45:02.238Z,6
2019-03-23T12:50:01.572Z,6
2019-03-23T12:55:01.934Z,7
2019-03-23T13:00:02.321Z,5
2019-03-23T13:05:04.056Z,5
2019-03-23T13:10:02.060Z,6
2019-03-23T13:15:02.219Z,5
2019-03-23T13:20:01.743Z,3
2019-03-23T13:25:02.241Z,5
2019-03-23T13:30:01.596Z,5
2019-03-23T13:35:01.957Z,4
2019-03-23T13:40:01.798Z,6
2019-03-23T13:45:02.158Z,9
2019-03-23T13:50:01.540Z,10
2019-03-23T13:55:01.902Z,7
2019-03-23T14:00:02.292Z,8
2019-03-23T14:05:01.926Z,6
2019-03-23T14:10:01.714Z,8
2019-03-23T14:15:02.181Z,7
2019-03-23T14:20:01.609Z,7
2019-03-23T14:25:01.964Z,7
2019-03-23T14:30:01.319Z,6
2019-03-23T14:35:01.706Z,6
2019-03-23T14:40:01.527Z,5
2019-03-23T14:45:01.882Z,4
2019-03-23T14:50:02.294Z,5
2019-03-23T14:55:01.649Z,5
2019-03-23T15:00:01.950Z,3
2019-03-23T15:05:01.580Z,4
2019-03-23T15:10:01.384Z,7
2019-03-23T15:15:01.849Z,6
2019-03-23T15:20:02.310Z,7
2019-03-23T15:25:01.684Z,5
2019-03-23T15:30:02.038Z,6
2019-03-23T15:35:01.390Z,6
2019-03-23T15:40:02.171Z,9
2019-03-23T15:45:01.550Z,5
2019-03-23T15:50:01.931Z,5
2019-03-23T15:55:03.393Z,7
2019-03-23T16:00:01.814Z,6
2019-03-23T16:05:01.459Z,6
2019-03-23T16:10:02.274Z,6
2019-03-23T16:15:01.996Z,6
2019-03-23T16:20:01.466Z,6
2019-03-23T16:25:01.844Z,6
2019-03-23T16:30:02.203Z,5
2019-03-23T16:35:01.566Z,5
2019-03-23T16:40:01.380Z,5
2019-03-23T16:45:01.721Z,3
2019-03-23T16:50:02.134Z,3
2019-03-23T16:55:01.488Z,4
2019-03-23T17:00:01.824Z,4
2019-03-23T17:05:01.510Z,4
2019-03-23T17:10:02.303Z,4
2019-03-23T17:15:01.792Z,4
2019-03-23T17:20:02.236Z,6
2019-03-23T17:25:01.576Z,9
2019-03-23T17:30:01.957Z,10
2019-03-23T17:35:01.332Z,9
2019-03-23T17:40:02.192Z,13
2019-03-23T17:45:01.592Z,15
2019-03-23T17:50:02.010Z,18
2019-03-23T17:55:01.352Z,19
2019-03-23T18:00:01.656Z,23
2019-03-23T18:05:02.296Z,25
2019-03-23T18:10:02.059Z,20
2019-03-23T18:15:01.615Z,23
2019-03-23T18:20:02.125Z,21
2019-03-23T18:25:01.494Z,19
2019-03-23T18:30:01.864Z,17
2019-03-23T18:35:03.260Z,17
2019-03-23T18:40:02.216Z,12
2019-03-23T18:45:01.528Z,13
2019-03-23T18:50:01.866Z,12
2019-03-23T18:55:02.205Z,11
2019-03-23T19:00:01.495Z,9
2019-03-23T19:05:02.175Z,12
2019-03-23T19:10:01.970Z,8
2019-03-23T19:15:01.975Z,9
2019-03-23T19:20:01.473Z,9
2019-03-23T19:25:01.825Z,8
2019-03-23T19:30:02.239Z,7
2019-03-23T19:35:01.603Z,9
2019-03-23T19:40:01.380Z,9
2019-03-23T19:45:01.754Z,8
2019-03-23T19:50:02.156Z,9
2019-03-23T19:55:01.508Z,6
2019-03-23T20:00:01.863Z,7
2019-03-23T20:05:01.559Z,7
2019-03-23T20:10:01.303Z,9
2019-03-23T20:15:01.788Z,7
2019-03-23T20:20:02.236Z,8
2019-03-23T20:25:01.631Z,8
2019-03-23T20:30:02.011Z,7
2019-03-23T20:35:01.408Z,8
2019-03-23T20:40:02.210Z,5
2019-03-23T20:45:01.554Z,5
2019-03-23T20:50:01.908Z,6
2019-03-23T20:55:02.253Z,7
2019-03-23T21:00:01.540Z,5
2019-03-23T21:05:02.207Z,5
2019-03-23T21:10:01.976Z,7
2019-03-23T21:15:01.485Z,5
2019-03-23T21:20:01.940Z,6
2019-03-23T21:25:02.308Z,5
2019-03-23T21:30:01.674Z,6
2019-03-23T21:35:02.018Z,7
2019-03-23T21:40:01.770Z,4
2019-03-23T21:45:02.156Z,5
2019-03-23T21:50:01.474Z,8
2019-03-23T21:55:01.854Z,6
2019-03-23T22:00:02.218Z,8
2019-03-23T22:05:01.955Z,6
2019-03-23T22:10:01.750Z,6
2019-03-23T22:15:02.348Z,5
2019-03-23T22:20:01.880Z,7
2019-03-23T22:25:02.267Z,7
2019-03-23T22:30:01.600Z,7
2019-03-23T22:35:01.954Z,7
2019-03-23T22:40:01.795Z,7
2019-03-23T22:45:02.147Z,5
2019-03-23T22:50:01.523Z,6
2019-03-23T22:55:01.861Z,6
2019-03-23T23:00:02.210Z,8
2019-03-23T23:05:01.840Z,8
2019-03-23T23:10:01.703Z,10
2019-03-23T23:15:04.717Z,10
2019-03-23T23:20:02.050Z,8
2019-03-23T23:25:01.404Z,11
2019-03-23T23:30:01.979Z,14
2019-03-23T23:35:01.356Z,21
2019-03-23T23:40:02.192Z,9
2019-03-23T23:45:02.226Z,31
2019-03-23T23:50:01.538Z,43
2019-03-23T23:55:01.966Z,14
